x

Passage Island, Mi (pilm4) Weather Station

8:00am - Mon 24th Nov 2014 All times are CST. -6 hours from GMT.

  • Wind
    10mph, 18mph gusts
  • Air Temp 26°f
  • Sea Pressure 989mb
  • Passage Island, Mi
  • Passage Island, Mi

More Historic Weather Station data

Upgrade to MSW Pro to gain access to the past 30 days of data for over 8000 Wavebouys and Weather Stations around the globe.

Join Pro

Comparision Forecast

View Surf forecast
   
Mon 11/24 8:00am 10 18 mph 989mb 26f
7:00am 13 20 mph 988.6mb 27f
6:00am 14 22 mph 988.3mb 29f
5:00am 16 30 mph 988.3mb 30f
4:00am 17 26 mph 988.7mb 32f
3:00am 15 30 mph 989.1mb 33f
2:00am 14 25 mph 989.8mb 35f
1:00am 15 24 mph 990.8mb 36f
12:00am 10 17 mph 992.3mb 37f
Sun 11/23 11:00pm 10 14 mph 993.4mb 38f
10:00pm 7
mph
994.1mb 40f
9:00pm 2
mph
994.7mb 42f
8:00pm 5 6 mph 995.8mb 42f
7:00pm 6
mph
996.3mb 42f
6:00pm 8 9 mph 996.7mb 42f
5:00pm 3 5 mph 997.3mb 41f
4:00pm 6
mph
997.5mb 41f
3:00pm 8
mph
997.8mb 42f
2:00pm 11 13 mph 998.1mb 42f
1:00pm 10 11 mph 998.4mb 42f
12:00pm 13 14 mph 999.1mb 42f
11:00am 11
mph
999.9mb 41f
10:00am 9 13 mph 1000.2mb 40f
9:00am 15 16 mph 1000.3mb 39f
8:00am 18 20 mph 1000.6mb 39f
7:00am 17 20 mph 1001.5mb 38f
6:00am 16 18 mph 1001.9mb 38f
5:00am 18
mph
1002.4mb 37f
4:00am 23 24 mph 1002.6mb 37f
3:00am 17 20 mph 1004.9mb 38f
2:00am 20 21 mph 1005.8mb 38f
1:00am 15 17 mph 1005.4mb 38f
12:00am 9
mph
1006.5mb 38f
Sat 11/22 11:00pm 14 15 mph 1006.9mb 37f
10:00pm 14
mph
1006.8mb 37f
9:00pm 8 9 mph 1007mb 37f
8:00pm 7 8 mph 1006.7mb 37f
7:00pm 3 5 mph 1006.8mb 37f
6:00pm  -  1 mph 1007mb 37f
5:00pm 5 6 mph 1006.8mb 37f
4:00pm 9 10 mph 1006.6mb 37f
3:00pm 13 15 mph 1005.9mb 36f
2:00pm 17 18 mph 1005.4mb 36f
1:00pm 22 23 mph 1005mb 36f
12:00pm 26 28 mph 1005.1mb 36f
11:00am 29 32 mph 1005.3mb 36f
10:00am 30 32 mph 1005.5mb 36f
9:00am 30 32 mph 1005.3mb 36f
8:00am 32 37 mph 1005.5mb 36f
7:00am 32 36 mph 1005.4mb 36f
6:00am 33 39 mph 1005.6mb 36f
5:00am 28 31 mph 1005.7mb 36f
4:00am 29 31 mph 1006mb 35f
3:00am 25 29 mph 1005.9mb 35f
2:00am 31 36 mph 1005.8mb 34f
1:00am 37 44 mph 1006.6mb 34f
12:00am 25 30 mph 1006.5mb 33f
Fri 11/21 11:00pm 29 33 mph 1006.8mb 33f
10:00pm 32 34 mph 1007.1mb 33f
9:00pm 37 41 mph 1008.2mb 33f
8:00pm 37 47 mph 1009.1mb 34f
7:00pm 34 38 mph 1010.2mb 35f
6:00pm 45 48 mph 1011.3mb 34f
5:00pm 37 44 mph 1012.4mb 33f
4:00pm 37 44 mph 1013.8mb 31f
3:00pm 37 43 mph 1015mb 30f
2:00pm 37 40 mph 1016.1mb 29f
1:00pm 37 43 mph 1017.5mb 28f
12:00pm 37 40 mph 1018.8mb 27f
11:00am 26 33 mph 1020.6mb 26f
10:00am 22 24 mph 1021.9mb 24f
9:00am 22 25 mph 1022.7mb 21f
8:00am 24 26 mph 1023.6mb 18f
7:00am 15 17 mph 1024.1mb 16f
6:00am 13 16 mph 1024.3mb 15f
5:00am 14 16 mph 1024.2mb 15f
4:00am 14 20 mph 1024.3mb 14f
3:00am 13 17 mph 1024.2mb 13f
2:00am 14 16 mph 1024.1mb 14f
1:00am 13 15 mph 1023.8mb 13f
12:00am 17 20 mph 1023.5mb 13f
Thu 11/20 11:00pm 18 21 mph 1023.1mb 13f
10:00pm 22 25 mph 1022.5mb 12f
9:00pm 22 26 mph 1021.9mb 11f
8:00pm 24 30 mph 1021.3mb 11f
7:00pm 26 29 mph 1020.7mb 11f
6:00pm 23 30 mph 1020.2mb 9f
5:00pm 23 26 mph 1019.3mb 9f
4:00pm 22 24 mph 1018.1mb 9f